sensor_id;sensor_type;location;lat;lon;timestamp;temperature;humidity
7048;DHT22;3565;53.254;10.352;2023-04-01T00:01:30;9.30;11.30
7048;DHT22;3565;53.254;10.352;2023-04-01T00:06:36;9.30;14.00
7048;DHT22;3565;53.254;10.352;2023-04-01T00:11:43;9.40;20.00
7048;DHT22;3565;53.254;10.352;2023-04-01T00:16:50;9.30;11.90
7048;DHT22;3565;53.254;10.352;2023-04-01T00:19:20;9.30;15.10
7048;DHT22;3565;53.254;10.352;2023-04-01T00:24:26;9.40;17.00
7048;DHT22;3565;53.254;10.352;2023-04-01T00:29:34;9.30;17.50
7048;DHT22;3565;53.254;10.352;2023-04-01T00:34:43;9.40;13.60
7048;DHT22;3565;53.254;10.352;2023-04-01T00:39:51;9.30;8.20
7048;DHT22;3565;53.254;10.352;2023-04-01T00:42:22;9.20;6.10
7048;DHT22;3565;53.254;10.352;2023-04-01T00:47:30;9.20;10.10
7048;DHT22;3565;53.254;10.352;2023-04-01T00:52:39;9.20;12.20
7048;DHT22;3565;53.254;10.352;2023-04-01T00:57:50;9.20;16.10
7048;DHT22;3565;53.254;10.352;2023-04-01T01:00:22;9.20;19.50
7048;DHT22;3565;53.254;10.352;2023-04-01T01:05:36;9.20;16.40
7048;DHT22;3565;53.254;10.352;2023-04-01T01:10:50;9.20;19.50
7048;DHT22;3565;53.254;10.352;2023-04-01T01:16:03;9.20;16.40
7048;DHT22;3565;53.254;10.352;2023-04-01T01:18:35;9.10;14.70
7048;DHT22;3565;53.254;10.352;2023-04-01T01:24:51;9.10;18.90
7048;DHT22;3565;53.254;10.352;2023-04-01T01:27:22;9.10;19.90
7048;DHT22;3565;53.254;10.352;2023-04-01T01:38:31;9.10;20.00
7048;DHT22;3565;53.254;10.352;2023-04-01T01:43:39;9.10;22.00
7048;DHT22;3565;53.254;10.352;2023-04-01T01:48:50;9.00;25.30
7048;DHT22;3565;53.254;10.352;2023-04-01T01:51:22;9.00;27.20
7048;DHT22;3565;53.254;10.352;2023-04-01T01:56:30;9.00;28.40
7048;DHT22;3565;53.254;10.352;2023-04-01T02:01:42;9.00;36.00
7048;DHT22;3565;53.254;10.352;2023-04-01T02:06:53;9.00;38.90
7048;DHT22;3565;53.254;10.352;2023-04-01T02:09:22;9.00;41.00
7048;DHT22;3565;53.254;10.352;2023-04-01T02:14:31;9.10;46.00
7048;DHT22;3565;53.254;10.352;2023-04-01T02:19:46;9.00;35.50
7048;DHT22;3565;53.254;10.352;2023-04-01T02:24:53;9.00;42.60
7048;DHT22;3565;53.254;10.352;2023-04-01T02:27:24;9.00;45.80
7048;DHT22;3565;53.254;10.352;2023-04-01T02:32:33;9.00;53.10
7048;DHT22;3565;53.254;10.352;2023-04-01T02:37:45;9.00;49.70
7048;DHT22;3565;53.254;10.352;2023-04-01T02:42:53;9.00;52.40
7048;DHT22;3565;53.254;10.352;2023-04-01T02:45:22;9.00;52.70
7048;DHT22;3565;53.254;10.352;2023-04-01T02:50:30;9.00;52.40
7048;DHT22;3565;53.254;10.352;2023-04-01T02:55:36;8.90;52.50
7048;DHT22;3565;53.254;10.352;2023-04-01T03:00:44;9.00;52.40
7048;DHT22;3565;53.254;10.352;2023-04-01T03:05:51;9.00;53.60
7048;DHT22;3565;53.254;10.352;2023-04-01T03:08:21;9.00;58.20
7048;DHT22;3565;53.254;10.352;2023-04-01T03:13:29;9.00;55.40
7048;DHT22;3565;53.254;10.352;2023-04-01T03:18:36;9.10;55.10
7048;DHT22;3565;53.254;10.352;2023-04-01T03:23:52;9.00;54.10
7048;DHT22;3565;53.254;10.352;2023-04-01T03:26:22;9.00;53.90
7048;DHT22;3565;53.254;10.352;2023-04-01T03:31:29;9.00;53.30
7048;DHT22;3565;53.254;10.352;2023-04-01T03:36:36;9.00;54.30
7048;DHT22;3565;53.254;10.352;2023-04-01T03:41:42;9.10;54.90
7048;DHT22;3565;53.254;10.352;2023-04-01T03:46:49;9.00;49.30
7048;DHT22;3565;53.254;10.352;2023-04-01T03:49:18;9.00;49.50
7048;DHT22;3565;53.254;10.352;2023-04-01T03:54:24;9.10;51.70
7048;DHT22;3565;53.254;10.352;2023-04-01T03:59:32;9.10;54.00
7048;DHT22;3565;53.254;10.352;2023-04-01T04:04:39;9.10;55.40
7048;DHT22;3565;53.254;10.352;2023-04-01T04:09:47;9.00;49.80
7048;DHT22;3565;53.254;10.352;2023-04-01T04:14:53;9.00;52.00
7048;DHT22;3565;53.254;10.352;2023-04-01T04:17:22;9.00;54.90
7048;DHT22;3565;53.254;10.352;2023-04-01T04:22:30;9.10;59.20
7048;DHT22;3565;53.254;10.352;2023-04-01T04:27:38;9.00;58.00
7048;DHT22;3565;53.254;10.352;2023-04-01T04:32:47;9.10;60.10
7048;DHT22;3565;53.254;10.352;2023-04-01T04:35:17;9.00;59.40
7048;DHT22;3565;53.254;10.352;2023-04-01T04:40:27;9.10;58.90
7048;DHT22;3565;53.254;10.352;2023-04-01T04:45:34;9.10;60.00
7048;DHT22;3565;53.254;10.352;2023-04-01T04:50:45;9.10;58.10
7048;DHT22;3565;53.254;10.352;2023-04-01T04:55:52;9.10;54.10
7048;DHT22;3565;53.254;10.352;2023-04-01T04:58:21;9.20;55.90
7048;DHT22;3565;53.254;10.352;2023-04-01T05:03:27;9.10;41.10
7048;DHT22;3565;53.254;10.352;2023-04-01T05:08:38;9.10;43.00
7048;DHT22;3565;53.254;10.352;2023-04-01T05:13:51;9.20;46.10
7048;DHT22;3565;53.254;10.352;2023-04-01T05:16:22;9.20;42.80
7048;DHT22;3565;53.254;10.352;2023-04-01T05:21:29;9.20;39.70
7048;DHT22;3565;53.254;10.352;2023-04-01T05:26:36;9.20;38.60
7048;DHT22;3565;53.254;10.352;2023-04-01T05:31:47;9.30;40.10
7048;DHT22;3565;53.254;10.352;2023-04-01T05:36:54;9.30;40.90
7048;DHT22;3565;53.254;10.352;2023-04-01T05:39:23;9.20;34.50
7048;DHT22;3565;53.254;10.352;2023-04-01T05:44:29;9.40;36.50
7048;DHT22;3565;53.254;10.352;2023-04-01T05:49:37;9.50;37.10
7048;DHT22;3565;53.254;10.352;2023-04-01T05:54:44;9.60;28.90
7048;DHT22;3565;53.254;10.352;2023-04-01T05:59:51;9.70;9.10
7048;DHT22;3565;53.254;10.352;2023-04-01T06:02:21;9.60;1.00
7048;DHT22;3565;53.254;10.352;2023-04-01T06:07:28;9.50;1.00
7048;DHT22;3565;53.254;10.352;2023-04-01T06:12:44;9.70;1.00
7048;DHT22;3565;53.254;10.352;2023-04-01T06:15:29;9.90;1.00
7048;DHT22;3565;53.254;10.352;2023-04-01T06:20:42;10.00;1.00
7048;DHT22;3565;53.254;10.352;2023-04-01T06:26:24;9.90;1.00
7048;DHT22;3565;53.254;10.352;2023-04-01T06:34:56;9.90;1.00
7048;DHT22;3565;53.254;10.352;2023-04-01T06:45:53;10.00;1.00
7048;DHT22;3565;53.254;10.352;2023-04-01T06:51:25;10.00;1.00
7048;DHT22;3565;53.254;10.352;2023-04-01T06:56:38;9.60;1.00
7048;DHT22;3565;53.254;10.352;2023-04-01T07:01:51;9.20;1.00
7048;DHT22;3565;53.254;10.352;2023-04-01T07:04:24;9.10;1.00
7048;DHT22;3565;53.254;10.352;2023-04-01T07:09:34;8.80;1.00
7048;DHT22;3565;53.254;10.352;2023-04-01T07:14:42;8.60;1.00
7048;DHT22;3565;53.254;10.352;2023-04-01T07:19:56;8.60;1.00
7048;DHT22;3565;53.254;10.352;2023-04-01T07:22:27;8.50;1.00
7048;DHT22;3565;53.254;10.352;2023-04-01T07:27:34;8.30;1.00
7048;DHT22;3565;53.254;10.352;2023-04-01T07:32:44;8.50;1.00
7048;DHT22;3565;53.254;10.352;2023-04-01T07:35:19;8.40;1.00
7048;DHT22;3565;53.254;10.352;2023-04-01T07:40:32;8.30;99.90
7048;DHT22;3565;53.254;10.352;2023-04-01T07:45:50;8.20;99.90
7048;DHT22;3565;53.254;10.352;2023-04-01T07:48:24;8.20;99.90
7048;DHT22;3565;53.254;10.352;2023-04-01T07:53:34;8.10;99.90
7048;DHT22;3565;53.254;10.352;2023-04-01T07:56:07;8.10;99.90
7048;DHT22;3565;53.254;10.352;2023-04-01T08:01:26;8.10;99.90
7048;DHT22;3565;53.254;10.352;2023-04-01T08:06:50;8.10;99.90
7048;DHT22;3565;53.254;10.352;2023-04-01T08:09:25;8.10;99.90
7048;DHT22;3565;53.254;10.352;2023-04-01T08:14:37;8.00;99.90
7048;DHT22;3565;53.254;10.352;2023-04-01T08:19:55;8.00;99.90
7048;DHT22;3565;53.254;10.352;2023-04-01T08:25:05;8.00;99.90
7048;DHT22;3565;53.254;10.352;2023-04-01T08:30:19;7.90;99.90
7048;DHT22;3565;53.254;10.352;2023-04-01T08:35:31;8.00;99.90
7048;DHT22;3565;53.254;10.352;2023-04-01T08:47:16;8.00;99.90
7048;DHT22;3565;53.254;10.352;2023-04-01T08:52:42;7.90;99.90
7048;DHT22;3565;53.254;10.352;2023-04-01T08:58:22;7.80;99.90
7048;DHT22;3565;53.254;10.352;2023-04-01T09:06:42;7.80;99.90
7048;DHT22;3565;53.254;10.352;2023-04-01T09:09:25;7.80;99.90
7048;DHT22;3565;53.254;10.352;2023-04-01T09:14:57;7.90;99.90
7048;DHT22;3565;53.254;10.352;2023-04-01T09:20:41;8.00;99.90
7048;DHT22;3565;53.254;10.352;2023-04-01T09:23:28;7.90;99.90
7048;DHT22;3565;53.254;10.352;2023-04-01T09:28:45;7.80;99.90
7048;DHT22;3565;53.254;10.352;2023-04-01T09:31:26;7.80;99.90
7048;DHT22;3565;53.254;10.352;2023-04-01T09:36:47;7.90;99.90
7048;DHT22;3565;53.254;10.352;2023-04-01T09:42:35;7.90;55.80
7048;DHT22;3565;53.254;10.352;2023-04-01T09:47:54;7.90;99.90
7048;DHT22;3565;53.254;10.352;2023-04-01T09:50:32;8.00;99.90
7048;DHT22;3565;53.254;10.352;2023-04-01T09:56:17;7.90;78.70
7048;DHT22;3565;53.254;10.352;2023-04-01T10:11:41;7.90;32.90
7048;DHT22;3565;53.254;10.352;2023-04-01T10:17:35;7.80;99.90
7048;DHT22;3565;53.254;10.352;2023-04-01T10:23:35;7.80;58.50
7048;DHT22;3565;53.254;10.352;2023-04-01T10:29:59;7.60;99.90
7048;DHT22;3565;53.254;10.352;2023-04-01T10:36:35;7.70;99.90
7048;DHT22;3565;53.254;10.352;2023-04-01T10:48:14;7.90;50.40
7048;DHT22;3565;53.254;10.352;2023-04-01T11:00:08;8.10;27.00
7048;DHT22;3565;53.254;10.352;2023-04-01T11:09:29;7.70;99.90
7048;DHT22;3565;53.254;10.352;2023-04-01T11:15:59;7.80;16.90
7048;DHT22;3565;53.254;10.352;2023-04-01T11:19:19;7.80;92.50
7048;DHT22;3565;53.254;10.352;2023-04-01T11:24:39;7.70;99.90
7048;DHT22;3565;53.254;10.352;2023-04-01T11:27:18;7.80;99.90
7048;DHT22;3565;53.254;10.352;2023-04-01T11:32:45;7.80;1.00
7048;DHT22;3565;53.254;10.352;2023-04-01T11:38:17;7.80;99.90
7048;DHT22;3565;53.254;10.352;2023-04-01T11:43:28;8.20;1.00
7048;DHT22;3565;53.254;10.352;2023-04-01T11:48:42;8.00;1.00
7048;DHT22;3565;53.254;10.352;2023-04-01T11:54:12;7.90;1.00
7048;DHT22;3565;53.254;10.352;2023-04-01T11:59:39;8.00;1.00
7048;DHT22;3565;53.254;10.352;2023-04-01T12:05:16;7.90;1.00
7048;DHT22;3565;53.254;10.352;2023-04-01T12:13:34;8.00;1.00
7048;DHT22;3565;53.254;10.352;2023-04-01T12:16:19;8.20;1.00
7048;DHT22;3565;53.254;10.352;2023-04-01T12:21:32;8.20;1.00
7048;DHT22;3565;53.254;10.352;2023-04-01T12:26:56;8.00;99.90
7048;DHT22;3565;53.254;10.352;2023-04-01T12:32:29;7.90;1.00
7048;DHT22;3565;53.254;10.352;2023-04-01T12:38:13;7.70;1.00
7048;DHT22;3565;53.254;10.352;2023-04-01T12:43:48;7.70;1.00
7048;DHT22;3565;53.254;10.352;2023-04-01T12:46:20;7.80;1.00
7048;DHT22;3565;53.254;10.352;2023-04-01T12:52:04;7.60;1.00
7048;DHT22;3565;53.254;10.352;2023-04-01T12:58:22;7.40;1.00
7048;DHT22;3565;53.254;10.352;2023-04-01T13:03:53;7.40;1.00
7048;DHT22;3565;53.254;10.352;2023-04-01T13:12:26;7.60;1.00
7048;DHT22;3565;53.254;10.352;2023-04-01T13:17:50;7.50;1.00
7048;DHT22;3565;53.254;10.352;2023-04-01T13:20:25;7.30;44.30
7048;DHT22;3565;53.254;10.352;2023-04-01T13:25:38;7.20;1.00
7048;DHT22;3565;53.254;10.352;2023-04-01T13:30:49;7.10;99.90
7048;DHT22;3565;53.254;10.352;2023-04-01T13:33:23;7.20;99.90
7048;DHT22;3565;53.254;10.352;2023-04-01T13:38:45;7.20;99.90
7048;DHT22;3565;53.254;10.352;2023-04-01T13:43:57;7.30;1.00
7048;DHT22;3565;53.254;10.352;2023-04-01T13:46:54;7.30;1.00
7048;DHT22;3565;53.254;10.352;2023-04-01T14:01:40;6.80;85.90
7048;DHT22;3565;53.254;10.352;2023-04-01T14:07:47;6.90;1.00
7048;DHT22;3565;53.254;10.352;2023-04-01T14:10:23;6.80;1.00
7048;DHT22;3565;53.254;10.352;2023-04-01T14:15:50;6.90;1.00
7048;DHT22;3565;53.254;10.352;2023-04-01T14:21:28;6.80;1.00
7048;DHT22;3565;53.254;10.352;2023-04-01T14:27:37;6.90;1.00
7048;DHT22;3565;53.254;10.352;2023-04-01T14:33:30;6.80;1.00
7048;DHT22;3565;53.254;10.352;2023-04-01T14:38:56;6.80;1.00
7048;DHT22;3565;53.254;10.352;2023-04-01T14:41:32;6.80;1.00
7048;DHT22;3565;53.254;10.352;2023-04-01T14:44:24;6.80;1.00
7048;DHT22;3565;53.254;10.352;2023-04-01T14:49:42;6.70;1.00
7048;DHT22;3565;53.254;10.352;2023-04-01T14:54:51;6.60;79.40
7048;DHT22;3565;53.254;10.352;2023-04-01T14:57:25;6.50;1.00
7048;DHT22;3565;53.254;10.352;2023-04-01T15:02:46;6.20;99.90
7048;DHT22;3565;53.254;10.352;2023-04-01T15:11:21;6.30;1.00
7048;DHT22;3565;53.254;10.352;2023-04-01T15:16:55;6.40;1.00
7048;DHT22;3565;53.254;10.352;2023-04-01T15:19:35;6.30;11.40
7048;DHT22;3565;53.254;10.352;2023-04-01T15:25:00;6.30;1.00
7048;DHT22;3565;53.254;10.352;2023-04-01T15:30:24;6.40;1.00
7048;DHT22;3565;53.254;10.352;2023-04-01T15:36:07;6.20;99.90
7048;DHT22;3565;53.254;10.352;2023-04-01T15:41:24;6.10;99.90
7048;DHT22;3565;53.254;10.352;2023-04-01T15:46:41;6.10;99.90
7048;DHT22;3565;53.254;10.352;2023-04-01T15:49:22;6.10;20.60
7048;DHT22;3565;53.254;10.352;2023-04-01T15:57:44;5.90;35.00
7048;DHT22;3565;53.254;10.352;2023-04-01T16:03:13;5.90;37.50
7048;DHT22;3565;53.254;10.352;2023-04-01T16:08:42;5.70;99.90
7048;DHT22;3565;53.254;10.352;2023-04-01T16:14:06;5.50;99.90
7048;DHT22;3565;53.254;10.352;2023-04-01T16:19:32;5.60;99.90
7048;DHT22;3565;53.254;10.352;2023-04-01T16:24:43;5.50;98.00
7048;DHT22;3565;53.254;10.352;2023-04-01T16:30:00;5.40;99.90
7048;DHT22;3565;53.254;10.352;2023-04-01T16:32:38;5.20;99.90
7048;DHT22;3565;53.254;10.352;2023-04-01T16:38:00;5.20;99.90
7048;DHT22;3565;53.254;10.352;2023-04-01T16:43:18;5.10;99.90
7048;DHT22;3565;53.254;10.352;2023-04-01T16:48:35;5.10;98.00
7048;DHT22;3565;53.254;10.352;2023-04-01T16:53:43;5.00;62.00
7048;DHT22;3565;53.254;10.352;2023-04-01T16:58:59;5.00;1.00
7048;DHT22;3565;53.254;10.352;2023-04-01T17:01:43;5.10;1.00
7048;DHT22;3565;53.254;10.352;2023-04-01T17:06:41;5.00;1.00
7048;DHT22;3565;53.254;10.352;2023-04-01T17:14:54;5.10;96.20
7048;DHT22;3565;53.254;10.352;2023-04-01T17:17:32;5.00;99.90
7048;DHT22;3565;53.254;10.352;2023-04-01T17:22:52;4.80;99.90
7048;DHT22;3565;53.254;10.352;2023-04-01T17:25:28;4.70;99.90
7048;DHT22;3565;53.254;10.352;2023-04-01T17:30:40;4.50;99.90
7048;DHT22;3565;53.254;10.352;2023-04-01T17:33:37;4.50;99.90
7048;DHT22;3565;53.254;10.352;2023-04-01T17:38:59;4.50;99.90
7048;DHT22;3565;53.254;10.352;2023-04-01T17:41:35;4.50;99.90
7048;DHT22;3565;53.254;10.352;2023-04-01T17:46:48;4.60;99.90
7048;DHT22;3565;53.254;10.352;2023-04-01T17:49:23;4.40;99.90
7048;DHT22;3565;53.254;10.352;2023-04-01T17:54:34;4.50;99.90
7048;DHT22;3565;53.254;10.352;2023-04-01T17:57:13;4.60;99.90
7048;DHT22;3565;53.254;10.352;2023-04-01T17:59:44;4.50;99.90
7048;DHT22;3565;53.254;10.352;2023-04-01T18:05:14;4.40;99.90
7048;DHT22;3565;53.254;10.352;2023-04-01T18:10:37;4.20;99.90
7048;DHT22;3565;53.254;10.352;2023-04-01T18:15:54;4.30;99.90
7048;DHT22;3565;53.254;10.352;2023-04-01T18:21:23;4.20;99.90
7048;DHT22;3565;53.254;10.352;2023-04-01T18:26:33;4.20;99.90
7048;DHT22;3565;53.254;10.352;2023-04-01T18:31:53;4.20;99.90
7048;DHT22;3565;53.254;10.352;2023-04-01T18:37:16;4.10;99.90
7048;DHT22;3565;53.254;10.352;2023-04-01T18:42:30;4.10;41.50
7048;DHT22;3565;53.254;10.352;2023-04-01T18:47:43;4.10;19.00
7048;DHT22;3565;53.254;10.352;2023-04-01T18:52:56;4.10;1.00
7048;DHT22;3565;53.254;10.352;2023-04-01T18:58:46;4.20;1.00
7048;DHT22;3565;53.254;10.352;2023-04-01T19:04:01;4.10;1.00
7048;DHT22;3565;53.254;10.352;2023-04-01T19:06:33;4.10;1.00
7048;DHT22;3565;53.254;10.352;2023-04-01T19:12:09;4.10;1.00
7048;DHT22;3565;53.254;10.352;2023-04-01T19:17:24;4.00;1.00
7048;DHT22;3565;53.254;10.352;2023-04-01T19:19:55;4.00;1.00
7048;DHT22;3565;53.254;10.352;2023-04-01T19:22:38;4.00;1.00
7048;DHT22;3565;53.254;10.352;2023-04-01T19:28:15;4.00;1.00
7048;DHT22;3565;53.254;10.352;2023-04-01T19:33:38;4.00;99.90
7048;DHT22;3565;53.254;10.352;2023-04-01T19:38:55;3.80;1.00
7048;DHT22;3565;53.254;10.352;2023-04-01T19:44:19;3.80;99.90
7048;DHT22;3565;53.254;10.352;2023-04-01T19:49:46;3.90;1.00
7048;DHT22;3565;53.254;10.352;2023-04-01T19:54:55;3.90;99.90
7048;DHT22;3565;53.254;10.352;2023-04-01T19:57:30;3.90;99.90
7048;DHT22;3565;53.254;10.352;2023-04-01T20:00:02;3.90;99.90
7048;DHT22;3565;53.254;10.352;2023-04-01T20:08:15;3.90;1.00
7048;DHT22;3565;53.254;10.352;2023-04-01T20:13:28;3.90;99.90
7048;DHT22;3565;53.254;10.352;2023-04-01T20:21:34;3.80;1.00
7048;DHT22;3565;53.254;10.352;2023-04-01T20:26:46;3.70;18.20
7048;DHT22;3565;53.254;10.352;2023-04-01T20:29:38;3.70;99.90
7048;DHT22;3565;53.254;10.352;2023-04-01T20:34:59;3.60;1.00
7048;DHT22;3565;53.254;10.352;2023-04-01T20:40:35;3.60;99.90
7048;DHT22;3565;53.254;10.352;2023-04-01T20:43:24;3.50;99.90
7048;DHT22;3565;53.254;10.352;2023-04-01T20:49:13;3.30;1.00
7048;DHT22;3565;53.254;10.352;2023-04-01T20:54:45;3.30;1.00
7048;DHT22;3565;53.254;10.352;2023-04-01T21:03:06;3.20;99.90
7048;DHT22;3565;53.254;10.352;2023-04-01T21:08:40;3.10;1.00
7048;DHT22;3565;53.254;10.352;2023-04-01T21:14:01;2.90;1.00
7048;DHT22;3565;53.254;10.352;2023-04-01T21:19:32;2.90;1.00
7048;DHT22;3565;53.254;10.352;2023-04-01T21:31:02;2.60;99.90
7048;DHT22;3565;53.254;10.352;2023-04-01T21:39:15;2.60;1.00
7048;DHT22;3565;53.254;10.352;2023-04-01T21:44:39;2.50;1.00
7048;DHT22;3565;53.254;10.352;2023-04-01T21:53:55;2.30;1.00
7048;DHT22;3565;53.254;10.352;2023-04-01T22:00:17;2.20;67.10
7048;DHT22;3565;53.254;10.352;2023-04-01T22:03:20;2.10;1.00
7048;DHT22;3565;53.254;10.352;2023-04-01T22:08:51;2.10;1.00
7048;DHT22;3565;53.254;10.352;2023-04-01T22:11:29;2.10;1.00
7048;DHT22;3565;53.254;10.352;2023-04-01T22:16:43;2.00;1.00
7048;DHT22;3565;53.254;10.352;2023-04-01T22:19:17;2.10;1.00
7048;DHT22;3565;53.254;10.352;2023-04-01T22:24:31;2.00;99.90
7048;DHT22;3565;53.254;10.352;2023-04-01T22:29:48;1.80;1.00
7048;DHT22;3565;53.254;10.352;2023-04-01T22:34:57;1.70;12.30
7048;DHT22;3565;53.254;10.352;2023-04-01T22:37:30;1.90;99.90
7048;DHT22;3565;53.254;10.352;2023-04-01T22:42:49;1.80;1.00
7048;DHT22;3565;53.254;10.352;2023-04-01T22:45:33;1.80;1.00
7048;DHT22;3565;53.254;10.352;2023-04-01T22:48:06;1.70;1.00
7048;DHT22;3565;53.254;10.352;2023-04-01T22:53:19;1.80;1.00
7048;DHT22;3565;53.254;10.352;2023-04-01T22:55:50;1.80;99.90
7048;DHT22;3565;53.254;10.352;2023-04-01T22:58:24;1.70;99.90
7048;DHT22;3565;53.254;10.352;2023-04-01T23:03:32;1.60;95.40
7048;DHT22;3565;53.254;10.352;2023-04-01T23:09:05;1.50;1.00
7048;DHT22;3565;53.254;10.352;2023-04-01T23:14:46;1.40;99.90
7048;DHT22;3565;53.254;10.352;2023-04-01T23:20:42;1.40;99.90
7048;DHT22;3565;53.254;10.352;2023-04-01T23:26:00;1.40;99.90
7048;DHT22;3565;53.254;10.352;2023-04-01T23:31:37;1.30;1.00
7048;DHT22;3565;53.254;10.352;2023-04-01T23:37:11;1.20;49.70
7048;DHT22;3565;53.254;10.352;2023-04-01T23:42:28;1.30;99.90
7048;DHT22;3565;53.254;10.352;2023-04-01T23:47:38;1.30;80.70
7048;DHT22;3565;53.254;10.352;2023-04-01T23:52:51;1.10;99.90
7048;DHT22;3565;53.254;10.352;2023-04-01T23:55:22;1.10;99.90
